createdAt,value
2023-05-05T00:00:13.330Z,62.17
2023-05-05T00:02:18.349Z,62.53
2023-05-05T00:04:09.822Z,63.01
2023-05-05T00:06:01.363Z,63.38
2023-05-05T00:07:52.806Z,63.48
2023-05-05T00:09:44.524Z,63.65
2023-05-05T00:11:35.971Z,64.02
2023-05-05T00:13:27.136Z,64.09
2023-05-05T00:15:19.117Z,63.85
2023-05-05T00:17:10.538Z,63.88
2023-05-05T00:19:01.603Z,63.69
2023-05-05T00:20:52.790Z,63.76
2023-05-05T00:22:44.443Z,63.62
2023-05-05T00:24:36.021Z,63.87
2023-05-05T00:26:27.519Z,64.16
2023-05-05T00:28:19.156Z,64.00
2023-05-05T00:30:10.765Z,63.69
2023-05-05T00:32:03.459Z,63.45
2023-05-05T00:33:54.871Z,63.78
2023-05-05T00:35:46.323Z,64.17
2023-05-05T00:37:37.603Z,63.90
2023-05-05T00:39:29.052Z,63.80
2023-05-05T00:41:20.428Z,64.02
2023-05-05T00:43:13.008Z,63.86
2023-05-05T00:45:04.566Z,64.28
2023-05-05T00:46:56.592Z,64.53
2023-05-05T00:48:48.205Z,64.58
2023-05-05T00:50:39.950Z,64.53
2023-05-05T00:52:31.545Z,64.08
2023-05-05T00:54:23.166Z,64.55
2023-05-05T00:56:15.964Z,64.42
2023-05-05T00:58:08.000Z,64.63
2023-05-05T00:59:59.758Z,64.44
2023-05-05T01:01:51.367Z,64.67
2023-05-05T01:03:43.278Z,64.65
2023-05-05T01:05:59.000Z,64.78
2023-05-05T01:09:02.254Z,64.62
2023-05-05T01:10:58.217Z,64.80
2023-05-05T01:13:08.133Z,64.78
2023-05-05T01:15:11.172Z,64.99
2023-05-05T01:17:11.417Z,65.14
2023-05-05T01:19:17.476Z,64.86
2023-05-05T01:21:31.741Z,65.34
2023-05-05T01:24:00.932Z,65.01
2023-05-05T01:26:12.776Z,65.39
2023-05-05T01:28:24.777Z,65.35
2023-05-05T01:30:33.397Z,65.53
2023-05-05T01:32:37.183Z,65.25
2023-05-05T01:34:40.513Z,65.39
2023-05-05T01:37:15.618Z,65.13
2023-05-05T01:39:09.321Z,65.06
2023-05-05T01:41:08.233Z,65.45
2023-05-05T01:43:01.137Z,65.79
2023-05-05T01:44:53.484Z,65.68
2023-05-05T01:46:44.949Z,65.69
2023-05-05T01:48:38.918Z,65.81
2023-05-05T01:50:32.306Z,65.82
2023-05-05T01:52:24.128Z,65.84
2023-05-05T01:54:17.574Z,65.83
2023-05-05T01:56:10.285Z,65.62
2023-05-05T01:58:03.624Z,65.82
2023-05-05T01:59:56.255Z,66.10
2023-05-05T02:01:49.039Z,65.64
2023-05-05T02:03:42.063Z,65.66
2023-05-05T02:05:35.068Z,65.83
2023-05-05T02:07:27.836Z,65.89
2023-05-05T02:09:19.680Z,65.87
2023-05-05T02:20:27.255Z,66.01
2023-05-05T02:22:19.147Z,66.20
2023-05-05T02:24:11.528Z,66.44
2023-05-05T02:26:05.176Z,66.64
2023-05-05T02:27:58.463Z,66.88
2023-05-05T02:29:57.139Z,67.04
2023-05-05T02:31:56.073Z,66.68
2023-05-05T02:33:49.591Z,66.80
2023-05-05T02:35:42.354Z,67.09
2023-05-05T02:37:34.338Z,67.14
2023-05-05T02:39:31.417Z,67.40
2023-05-05T02:41:24.826Z,67.55
2023-05-05T02:43:19.712Z,67.70
2023-05-05T02:45:13.339Z,67.76
2023-05-05T02:47:05.439Z,67.71
2023-05-05T02:48:59.768Z,67.71
2023-05-05T02:50:51.035Z,67.69
2023-05-05T02:52:43.208Z,67.66
2023-05-05T02:54:34.947Z,67.84
2023-05-05T02:56:34.722Z,68.12
2023-05-05T02:58:46.884Z,68.19
2023-05-05T03:00:44.757Z,68.14
2023-05-05T03:03:00.720Z,67.89
2023-05-05T03:04:56.964Z,68.18
2023-05-05T03:06:51.253Z,68.48
2023-05-05T03:08:46.029Z,68.61
2023-05-05T03:10:48.078Z,68.74
2023-05-05T03:12:49.914Z,68.64
2023-05-05T03:14:43.380Z,68.61
2023-05-05T03:16:41.383Z,68.72
2023-05-05T03:18:37.758Z,68.52
2023-05-05T03:20:29.752Z,68.19
2023-05-05T03:22:21.264Z,68.20
2023-05-05T03:24:19.874Z,68.41
2023-05-05T03:26:11.334Z,68.77
2023-05-05T03:28:02.881Z,69.05
2023-05-05T03:29:54.911Z,68.94
2023-05-05T03:31:46.485Z,68.77
2023-05-05T03:33:38.386Z,68.77
2023-05-05T03:35:30.396Z,68.65
2023-05-05T03:37:22.036Z,68.63
2023-05-05T03:39:13.470Z,68.66
2023-05-05T03:41:04.865Z,68.59
2023-05-05T03:42:56.602Z,68.59
2023-05-05T03:44:47.988Z,68.69
2023-05-05T03:46:39.923Z,68.70
2023-05-05T03:48:31.820Z,68.85
2023-05-05T03:50:24.421Z,68.82
2023-05-05T03:52:16.376Z,68.57
2023-05-05T03:54:08.212Z,68.22
2023-05-05T03:55:59.472Z,68.18
2023-05-05T03:57:51.109Z,68.17
2023-05-05T03:59:42.756Z,68.05
2023-05-05T04:01:35.758Z,68.06
2023-05-05T04:03:27.687Z,67.83
2023-05-05T04:05:19.974Z,67.77
2023-05-05T04:07:11.550Z,68.01
2023-05-05T04:09:03.537Z,68.18
2023-05-05T04:10:57.480Z,68.04
2023-05-05T04:12:48.917Z,68.23
2023-05-05T04:14:41.021Z,68.42
2023-05-05T04:16:32.639Z,68.85
2023-05-05T04:18:24.386Z,68.97
2023-05-05T04:20:15.953Z,69.09
2023-05-05T04:22:07.534Z,68.98
2023-05-05T04:23:58.964Z,68.76
2023-05-05T04:25:50.220Z,68.70
2023-05-05T04:27:42.020Z,68.57
2023-05-05T04:29:33.647Z,68.60
2023-05-05T04:31:25.391Z,68.67
2023-05-05T04:33:17.169Z,68.61
2023-05-05T04:35:09.165Z,68.52
2023-05-05T04:37:01.232Z,68.83
2023-05-05T04:38:52.565Z,68.66
2023-05-05T04:40:44.245Z,68.91
2023-05-05T04:42:36.666Z,68.79
2023-05-05T04:44:28.194Z,68.20
2023-05-05T04:46:19.589Z,68.04
2023-05-05T04:48:11.418Z,67.46
2023-05-05T04:50:03.337Z,67.49
2023-05-05T04:51:55.563Z,66.93
2023-05-05T04:53:47.005Z,66.13
2023-05-05T04:55:41.520Z,65.52
2023-05-05T04:57:33.101Z,64.80
2023-05-05T04:59:24.757Z,64.39
2023-05-05T05:01:16.880Z,64.24
2023-05-05T05:03:08.541Z,63.35
2023-05-05T05:05:00.168Z,62.59
2023-05-05T05:06:51.544Z,61.98
2023-05-05T05:08:43.153Z,62.04
2023-05-05T05:10:36.730Z,61.53
2023-05-05T05:12:28.372Z,62.28
2023-05-05T05:14:19.966Z,62.14
2023-05-05T05:16:11.740Z,61.06
2023-05-05T05:18:03.333Z,60.00
2023-05-05T05:19:56.250Z,60.04
2023-05-05T05:21:48.082Z,60.18
2023-05-05T05:23:39.693Z,59.54
2023-05-05T05:25:31.306Z,59.29
2023-05-05T05:27:23.061Z,57.99
2023-05-05T05:29:14.416Z,57.97
2023-05-05T05:31:06.922Z,57.85
2023-05-05T05:32:58.611Z,57.48
2023-05-05T05:34:50.446Z,56.92
2023-05-05T05:36:42.121Z,56.59
2023-05-05T05:38:33.557Z,56.26
2023-05-05T05:40:25.161Z,56.03
2023-05-05T05:42:16.603Z,55.36
2023-05-05T05:44:08.141Z,54.86
2023-05-05T05:45:59.644Z,54.61
2023-05-05T05:47:52.184Z,54.32
2023-05-05T05:49:43.879Z,54.30
2023-05-05T05:51:35.322Z,54.74
2023-05-05T05:53:26.968Z,54.95
2023-05-05T05:55:18.627Z,54.33
2023-05-05T05:57:10.071Z,54.21
2023-05-05T05:59:01.876Z,54.82
2023-05-05T06:00:53.460Z,53.75
2023-05-05T06:02:45.160Z,54.54
2023-05-05T06:04:36.799Z,54.16
2023-05-05T06:06:28.344Z,53.08
2023-05-05T06:08:19.859Z,52.90
2023-05-05T06:10:26.578Z,52.98
2023-05-05T06:12:19.764Z,52.32
2023-05-05T06:14:11.551Z,51.79
2023-05-05T06:16:03.439Z,51.94
2023-05-05T06:17:55.943Z,51.72
2023-05-05T06:19:47.949Z,50.36
2023-05-05T06:21:39.567Z,50.29
2023-05-05T06:23:31.110Z,49.17
2023-05-05T06:25:22.970Z,49.37
2023-05-05T06:27:14.528Z,48.30
2023-05-05T06:29:06.874Z,48.08
2023-05-05T06:30:58.401Z,48.29
2023-05-05T06:32:50.265Z,47.17
2023-05-05T06:34:43.415Z,46.82
2023-05-05T06:36:35.817Z,48.32
2023-05-05T06:38:27.198Z,47.07
2023-05-05T06:40:18.776Z,47.07
2023-05-05T06:42:10.603Z,46.11
2023-05-05T06:44:02.124Z,45.87
2023-05-05T06:45:53.975Z,44.76
2023-05-05T06:47:45.509Z,45.72
2023-05-05T06:49:37.353Z,44.04
2023-05-05T06:51:29.869Z,43.69
2023-05-05T06:53:21.259Z,44.03
2023-05-05T06:55:13.135Z,44.26
2023-05-05T06:57:05.011Z,43.93
2023-05-05T06:58:56.851Z,43.57
2023-05-05T07:00:48.518Z,44.16
2023-05-05T07:02:41.265Z,44.46
2023-05-05T07:04:32.758Z,42.62
2023-05-05T07:06:24.127Z,42.83
2023-05-05T07:08:16.204Z,40.76
2023-05-05T07:10:09.950Z,40.29
2023-05-05T07:12:02.579Z,41.82
2023-05-05T07:13:54.287Z,40.23
2023-05-05T07:15:47.046Z,39.37
2023-05-05T07:17:41.782Z,38.58
2023-05-05T07:19:35.737Z,38.45
2023-05-05T07:21:47.733Z,39.90
2023-05-05T07:23:40.905Z,38.19
2023-05-05T07:25:32.677Z,37.46
2023-05-05T07:27:24.443Z,36.87
2023-05-05T07:29:16.727Z,35.96
2023-05-05T07:31:09.903Z,36.00
2023-05-05T07:33:01.911Z,36.67
2023-05-05T07:34:53.722Z,37.13
2023-05-05T07:37:07.294Z,35.81
2023-05-05T07:39:44.400Z,36.47
2023-05-05T07:41:39.235Z,35.53
2023-05-05T07:43:31.141Z,34.99
2023-05-05T07:45:22.854Z,35.12
2023-05-05T07:47:14.655Z,34.78
2023-05-05T07:49:06.889Z,34.69
2023-05-05T07:50:58.597Z,34.03
2023-05-05T07:52:56.390Z,33.86
2023-05-05T07:54:58.077Z,34.01
2023-05-05T07:56:49.618Z,33.14
2023-05-05T07:58:42.347Z,33.52
2023-05-05T08:00:34.247Z,32.08
2023-05-05T08:02:25.879Z,32.95
2023-05-05T08:04:17.856Z,32.94
2023-05-05T08:06:10.085Z,32.37
2023-05-05T08:08:01.562Z,31.35
2023-05-05T08:09:53.310Z,31.48
2023-05-05T08:11:45.153Z,33.83
2023-05-05T08:13:36.752Z,32.22
2023-05-05T08:15:28.197Z,31.97
2023-05-05T08:17:19.738Z,30.00
2023-05-05T08:19:21.570Z,31.55
2023-05-05T08:21:19.342Z,29.81
2023-05-05T08:23:10.953Z,29.85
2023-05-05T08:25:02.759Z,29.66
2023-05-05T08:26:55.575Z,29.56
2023-05-05T08:28:47.486Z,29.82
2023-05-05T08:30:39.276Z,28.84
2023-05-05T08:32:31.785Z,29.22
2023-05-05T08:34:23.505Z,27.57
2023-05-05T08:36:15.503Z,27.65
2023-05-05T08:38:06.970Z,27.87
2023-05-05T08:39:58.731Z,27.72
2023-05-05T08:41:50.237Z,27.77
2023-05-05T08:43:45.687Z,27.52
2023-05-05T08:45:40.915Z,26.91
2023-05-05T08:47:32.941Z,26.93
2023-05-05T08:49:25.441Z,27.43
2023-05-05T08:51:19.514Z,28.47
2023-05-05T08:53:16.013Z,26.24
2023-05-05T08:55:19.808Z,26.38
2023-05-05T08:57:12.718Z,25.71
2023-05-05T08:59:04.582Z,24.98
2023-05-05T09:00:56.944Z,25.17
2023-05-05T09:02:49.067Z,26.15
2023-05-05T09:04:41.018Z,26.58
2023-05-05T09:06:33.786Z,26.72
2023-05-05T09:08:26.068Z,26.06
2023-05-05T09:10:18.461Z,24.93
2023-05-05T09:12:10.005Z,26.12
2023-05-05T09:14:02.105Z,26.08
2023-05-05T09:15:53.746Z,25.14
2023-05-05T09:17:46.834Z,25.13
2023-05-05T09:20:07.336Z,24.69
2023-05-05T09:21:59.614Z,23.78
2023-05-05T09:24:11.511Z,24.95
2023-05-05T09:26:05.287Z,25.14
2023-05-05T09:27:57.150Z,25.56
2023-05-05T09:29:49.807Z,26.53
2023-05-05T09:31:41.385Z,25.08
2023-05-05T09:33:32.947Z,25.46
2023-05-05T09:35:24.392Z,23.71
2023-05-05T09:37:27.519Z,23.65
2023-05-05T09:39:20.613Z,22.57
2023-05-05T09:41:12.235Z,22.52
2023-05-05T09:43:04.129Z,23.84
2023-05-05T09:44:59.635Z,22.26
2023-05-05T09:46:55.306Z,23.85
2023-05-05T09:48:46.827Z,22.48
2023-05-05T09:50:44.793Z,23.82
2023-05-05T09:52:36.763Z,23.63
2023-05-05T09:54:30.130Z,22.59
2023-05-05T09:56:21.679Z,23.48
2023-05-05T09:58:20.814Z,23.08
2023-05-05T10:00:37.684Z,22.07
2023-05-05T10:02:32.920Z,23.53
2023-05-05T10:04:28.482Z,22.82
2023-05-05T10:06:22.112Z,22.04
2023-05-05T10:08:13.749Z,22.74
2023-05-05T10:10:11.051Z,21.83
2023-05-05T10:12:05.605Z,21.89
2023-05-05T10:13:57.500Z,23.26
2023-05-05T10:15:51.495Z,21.87
2023-05-05T10:18:02.381Z,21.88
2023-05-05T10:20:01.190Z,21.97
2023-05-05T10:21:54.974Z,22.51
2023-05-05T10:23:58.094Z,21.94
2023-05-05T10:26:02.906Z,22.56
2023-05-05T10:27:56.512Z,22.41
2023-05-05T10:30:07.389Z,21.83
2023-05-05T10:32:27.184Z,21.54
2023-05-05T10:34:29.854Z,21.18
2023-05-05T10:36:22.060Z,21.79
2023-05-05T10:38:14.523Z,23.36
2023-05-05T10:40:08.352Z,22.69
2023-05-05T10:42:04.472Z,22.81
2023-05-05T10:44:00.426Z,21.49
2023-05-05T10:45:53.767Z,21.98
2023-05-05T10:47:45.845Z,21.00
2023-05-05T10:49:57.521Z,21.25
2023-05-05T10:52:10.269Z,22.99
2023-05-05T10:54:29.436Z,22.27
2023-05-05T10:56:33.032Z,22.12
2023-05-05T10:58:51.172Z,23.20
2023-05-05T11:00:50.491Z,21.92
2023-05-05T11:02:42.256Z,22.52
2023-05-05T11:04:33.688Z,21.64
2023-05-05T11:06:25.421Z,21.49
2023-05-05T11:08:26.985Z,22.99
2023-05-05T11:10:20.770Z,21.60
2023-05-05T11:12:13.896Z,21.06
2023-05-05T11:14:20.149Z,20.11
2023-05-05T11:16:44.848Z,21.71
2023-05-05T11:18:38.326Z,20.71
2023-05-05T11:20:36.279Z,20.98
2023-05-05T11:22:28.980Z,21.14
2023-05-05T11:24:30.406Z,22.56
2023-05-05T11:26:49.411Z,22.27
2023-05-05T11:29:13.991Z,20.22
2023-05-05T11:31:35.924Z,20.62
2023-05-05T11:34:31.390Z,20.41
2023-05-05T11:36:53.566Z,22.15
2023-05-05T11:39:23.455Z,20.80
2023-05-05T11:41:33.486Z,20.30
2023-05-05T11:43:25.380Z,20.07
2023-05-05T11:45:24.085Z,19.33
2023-05-05T11:47:15.852Z,19.90
2023-05-05T11:49:09.473Z,21.25
2023-05-05T11:51:03.709Z,21.79
2023-05-05T11:52:55.203Z,21.56
2023-05-05T11:54:50.863Z,21.34
2023-05-05T11:56:53.633Z,20.73
2023-05-05T11:58:46.784Z,20.23
2023-05-05T12:00:38.304Z,21.44
2023-05-05T12:02:31.509Z,20.01
2023-05-05T12:04:23.419Z,21.13
2023-05-05T12:06:15.182Z,21.35
2023-05-05T12:08:06.891Z,20.76
2023-05-05T12:09:58.252Z,20.89
2023-05-05T12:11:56.194Z,20.24
2023-05-05T12:13:47.731Z,21.33
2023-05-05T12:15:39.049Z,20.43
2023-05-05T12:17:43.234Z,19.89
2023-05-05T12:19:36.675Z,20.42
2023-05-05T12:21:28.117Z,19.83
2023-05-05T12:23:20.321Z,19.56
2023-05-05T12:25:12.220Z,19.57
2023-05-05T12:27:11.872Z,18.39
2023-05-05T12:29:03.238Z,18.93
2023-05-05T12:30:59.052Z,18.93
2023-05-05T12:32:51.416Z,20.28
2023-05-05T12:34:42.867Z,20.51
2023-05-05T12:36:34.936Z,20.37
2023-05-05T12:38:26.597Z,19.60
2023-05-05T12:40:42.624Z,21.08
2023-05-05T12:42:39.039Z,20.00
2023-05-05T12:44:37.765Z,19.59
2023-05-05T12:46:29.871Z,19.63
2023-05-05T12:48:22.489Z,19.03
2023-05-05T12:50:13.782Z,19.61
2023-05-05T12:52:05.669Z,20.29
2023-05-05T12:54:08.226Z,19.66
2023-05-05T12:55:59.560Z,19.84
2023-05-05T12:58:06.815Z,20.09
2023-05-05T12:59:58.570Z,19.19
2023-05-05T13:01:52.818Z,18.59
2023-05-05T13:03:44.863Z,21.22
2023-05-05T13:05:36.746Z,19.39
2023-05-05T13:07:28.213Z,19.11
2023-05-05T13:09:34.083Z,18.04
2023-05-05T13:11:25.359Z,18.91
2023-05-05T13:13:17.486Z,20.25
2023-05-05T13:15:10.235Z,19.84
2023-05-05T13:17:02.085Z,19.33
2023-05-05T13:18:53.951Z,18.94
2023-05-05T13:20:45.580Z,18.19
2023-05-05T13:22:37.293Z,19.08
2023-05-05T13:24:46.398Z,20.55
2023-05-05T13:26:41.447Z,20.08
2023-05-05T13:28:33.323Z,20.66
2023-05-05T13:30:25.109Z,20.27
2023-05-05T13:32:16.688Z,19.68
2023-05-05T13:34:08.201Z,19.70
2023-05-05T13:35:59.721Z,19.93
2023-05-05T13:37:51.499Z,19.32
2023-05-05T13:39:43.313Z,20.25
2023-05-05T13:41:35.148Z,19.10
2023-05-05T13:43:26.662Z,19.90
2023-05-05T13:45:19.833Z,19.88
2023-05-05T13:47:11.446Z,20.63
2023-05-05T13:49:03.330Z,20.49
2023-05-05T13:50:55.009Z,19.05
2023-05-05T13:52:46.372Z,20.27
2023-05-05T13:54:38.097Z,20.35
2023-05-05T13:56:30.054Z,20.54
2023-05-05T13:58:22.075Z,21.17
2023-05-05T14:00:14.817Z,20.46
2023-05-05T14:02:07.767Z,20.92
2023-05-05T14:03:59.452Z,21.16
2023-05-05T14:05:51.013Z,21.09
2023-05-05T14:07:42.912Z,21.21
2023-05-05T14:09:34.712Z,20.47
2023-05-05T14:11:26.365Z,20.57
2023-05-05T14:13:17.746Z,20.65
2023-05-05T14:15:09.716Z,22.12
2023-05-05T14:17:01.664Z,21.34
2023-05-05T14:18:53.371Z,21.37
2023-05-05T14:20:44.655Z,22.17
2023-05-05T14:22:36.463Z,22.41
2023-05-05T14:24:27.812Z,21.52
2023-05-05T14:26:19.171Z,21.37
2023-05-05T14:28:11.079Z,21.88
2023-05-05T14:30:02.736Z,21.30
2023-05-05T14:31:54.638Z,21.06
2023-05-05T14:33:46.154Z,21.62
2023-05-05T14:35:37.865Z,22.45
2023-05-05T14:37:29.684Z,21.94
2023-05-05T14:39:21.502Z,22.53
2023-05-05T14:41:12.769Z,22.34
2023-05-05T14:43:04.556Z,22.68
2023-05-05T14:44:56.291Z,22.93
2023-05-05T14:46:49.741Z,22.60
2023-05-05T14:48:42.973Z,22.12
2023-05-05T14:50:34.797Z,22.81
2023-05-05T14:52:26.868Z,23.82
2023-05-05T14:54:27.223Z,23.68
2023-05-05T14:56:22.525Z,24.16
2023-05-05T14:58:14.111Z,24.01
2023-05-05T15:00:09.449Z,23.78
2023-05-05T15:02:01.399Z,23.52
2023-05-05T15:03:54.057Z,24.18
2023-05-05T15:05:45.721Z,24.55
2023-05-05T15:07:37.559Z,24.17
2023-05-05T15:09:28.990Z,23.86
2023-05-05T15:11:20.610Z,23.72
2023-05-05T15:13:12.528Z,23.33
2023-05-05T15:15:04.521Z,23.76
2023-05-05T15:16:56.019Z,24.73
2023-05-05T15:18:47.698Z,24.15
2023-05-05T15:20:39.577Z,24.31
2023-05-05T15:22:30.984Z,24.48
2023-05-05T15:24:22.272Z,24.56
2023-05-05T15:26:13.974Z,25.16
2023-05-05T15:28:05.734Z,25.84
2023-05-05T15:29:57.421Z,25.97
2023-05-05T15:31:48.918Z,26.31
2023-05-05T15:42:52.018Z,26.55
2023-05-05T15:44:43.484Z,27.16
2023-05-05T15:46:34.906Z,26.88
2023-05-05T15:48:26.445Z,26.30
2023-05-05T15:50:18.285Z,26.37
2023-05-05T15:52:10.245Z,26.32
2023-05-05T15:54:02.040Z,26.24
2023-05-05T15:55:53.853Z,25.75
2023-05-05T15:57:45.026Z,26.28
2023-05-05T15:59:36.516Z,26.08
2023-05-05T16:01:28.068Z,26.08
2023-05-05T16:03:20.082Z,26.46
2023-05-05T16:05:12.395Z,26.90
2023-05-05T16:07:03.757Z,27.62
2023-05-05T16:08:58.073Z,27.00
2023-05-05T16:10:49.928Z,26.65
2023-05-05T16:12:41.855Z,27.02
2023-05-05T16:14:33.698Z,27.08
2023-05-05T16:16:25.601Z,27.61
2023-05-05T16:18:16.932Z,27.53
2023-05-05T16:20:09.062Z,27.30
2023-05-05T16:22:01.647Z,27.30
2023-05-05T16:23:52.917Z,27.50
2023-05-05T16:25:44.984Z,27.53
2023-05-05T16:27:36.688Z,27.26
2023-05-05T16:29:28.260Z,27.77
2023-05-05T16:31:19.680Z,27.56
2023-05-05T16:33:11.326Z,27.95
2023-05-05T16:35:03.313Z,28.16
2023-05-05T16:36:55.114Z,28.36
2023-05-05T16:38:46.744Z,27.66
2023-05-05T16:40:38.538Z,27.92
2023-05-05T16:42:30.148Z,27.76
2023-05-05T16:44:21.811Z,28.36
2023-05-05T16:46:13.205Z,29.11
2023-05-05T16:48:07.441Z,28.73
2023-05-05T16:50:00.258Z,28.71
2023-05-05T16:51:53.658Z,28.66
2023-05-05T16:53:46.615Z,28.76
2023-05-05T16:55:39.114Z,29.14
2023-05-05T16:57:31.472Z,28.96
2023-05-05T16:59:22.816Z,28.97
2023-05-05T17:01:15.083Z,28.94
2023-05-05T17:03:06.829Z,29.08
2023-05-05T17:04:58.545Z,29.20
2023-05-05T17:06:51.079Z,29.41
2023-05-05T17:08:42.914Z,29.62
2023-05-05T17:10:34.313Z,29.76
2023-05-05T17:12:25.904Z,29.65
2023-05-05T17:14:17.602Z,29.63
2023-05-05T17:16:09.332Z,29.86
2023-05-05T17:18:00.932Z,29.74
2023-05-05T17:19:52.791Z,29.60
2023-05-05T17:21:44.246Z,29.59
2023-05-05T17:23:36.233Z,29.66
2023-05-05T17:25:28.344Z,30.30
2023-05-05T17:27:19.838Z,29.85
2023-05-05T17:29:13.088Z,29.59
2023-05-05T17:31:05.815Z,29.76
2023-05-05T17:32:57.641Z,30.03
2023-05-05T17:34:49.057Z,29.93
2023-05-05T17:36:40.562Z,29.75
2023-05-05T17:38:32.668Z,29.61
2023-05-05T17:40:25.206Z,29.62
2023-05-05T17:42:22.718Z,29.93
2023-05-05T17:44:14.585Z,30.19
2023-05-05T17:46:06.454Z,30.07
2023-05-05T17:47:57.924Z,30.33
2023-05-05T17:49:50.126Z,30.48
2023-05-05T17:51:41.875Z,30.57
2023-05-05T17:53:33.593Z,30.59
2023-05-05T17:55:25.079Z,31.00
2023-05-05T17:57:18.186Z,30.85
2023-05-05T17:59:09.578Z,31.16
2023-05-05T18:01:01.298Z,31.27
2023-05-05T18:02:53.152Z,31.46
2023-05-05T18:04:45.823Z,31.44
2023-05-05T18:06:37.264Z,31.74
2023-05-05T18:08:28.820Z,31.73
2023-05-05T18:10:20.785Z,31.96
2023-05-05T18:12:12.271Z,32.11
2023-05-05T18:14:04.059Z,31.99
2023-05-05T18:15:56.618Z,32.20
2023-05-05T18:17:48.170Z,31.95
2023-05-05T18:19:43.075Z,32.33
2023-05-05T18:21:34.308Z,32.63
2023-05-05T18:23:26.098Z,32.61
2023-05-05T18:25:19.184Z,33.13
2023-05-05T18:27:10.760Z,33.27
2023-05-05T18:29:02.575Z,34.18
2023-05-05T18:30:54.000Z,35.06
2023-05-05T18:32:45.826Z,35.86
2023-05-05T18:34:37.450Z,36.46
2023-05-05T18:36:29.123Z,36.52
2023-05-05T18:38:21.497Z,37.16
2023-05-05T18:40:13.559Z,37.62
2023-05-05T18:42:05.499Z,38.24
2023-05-05T18:43:57.184Z,38.75
2023-05-05T18:45:48.651Z,39.42
2023-05-05T18:47:41.549Z,40.18
2023-05-05T18:49:33.476Z,40.32
2023-05-05T18:51:25.061Z,40.61
2023-05-05T18:53:17.855Z,41.11
2023-05-05T18:55:09.790Z,41.38
2023-05-05T18:57:01.665Z,41.86
2023-05-05T18:58:53.421Z,42.08
2023-05-05T19:00:44.815Z,42.63
2023-05-05T19:02:36.525Z,42.72
2023-05-05T19:04:31.577Z,43.21
2023-05-05T19:06:23.277Z,43.16
2023-05-05T19:08:15.022Z,43.47
2023-05-05T19:10:07.602Z,43.51
2023-05-05T19:11:58.952Z,43.71
2023-05-05T19:13:51.433Z,44.26
2023-05-05T19:15:43.333Z,44.23
2023-05-05T19:17:35.258Z,44.47
2023-05-05T19:19:26.903Z,44.62
2023-05-05T19:21:18.423Z,44.82
2023-05-05T19:23:10.037Z,45.11
2023-05-05T19:25:01.572Z,45.11
2023-05-05T19:26:53.439Z,45.42
2023-05-05T19:28:44.947Z,45.27
2023-05-05T19:30:36.952Z,45.47
2023-05-05T19:32:29.089Z,45.72
2023-05-05T19:34:21.344Z,46.10
2023-05-05T19:36:13.000Z,46.10
2023-05-05T19:38:04.493Z,46.32
2023-05-05T19:39:56.557Z,46.61
2023-05-05T19:41:48.324Z,46.78
2023-05-05T19:43:39.847Z,46.97
2023-05-05T19:45:31.990Z,47.04
2023-05-05T19:47:23.621Z,47.18
2023-05-05T19:49:15.127Z,47.39
